Time;durP1;ratioP1;P1;durP2;ratioP2;P2;SDS_P1;SDS_P2;PMS_P1;PMS_P2;Temp;Humidity;BMP_temperature;BMP_pressure;BME280_temperature;BME280_humidity;BME280_pressure;Samples;Min_cycle;Max_cycle;Signal;HPM_P1;HPM_P2
2022/09/18 00:02:13;;;;;;;2.08;1.67;;;;;;;26.55;28.25;96977.56;5053087;28;20021;-77
2022/09/18 00:04:39;;;;;;;3.20;1.67;;;;;;;26.79;28.12;96977.63;5053105;28;20487;-77
2022/09/18 00:07:06;;;;;;;4.30;1.90;;;;;;;26.31;28.16;96967.50;5068196;28;20072;-77
2022/09/18 00:09:32;;;;;;;2.35;1.30;;;;;;;26.78;28.06;96975.25;5066719;28;20035;-78
2022/09/18 00:11:59;;;;;;;2.55;1.58;;;;;;;26.82;27.71;96975.84;5064085;28;20051;-77
2022/09/18 00:14:25;;;;;;;1.30;1.20;;;;;;;27.12;27.31;96971.91;5067786;28;20034;-77
2022/09/18 00:16:52;;;;;;;2.65;1.25;;;;;;;27.18;27.33;96975.63;5063805;28;20037;-78
2022/09/18 00:19:18;;;;;;;1.90;1.00;;;;;;;27.16;27.21;96973.28;5063689;28;20032;-78
2022/09/18 00:21:47;;;;;;;3.92;1.63;;;;;;;26.82;27.59;96971.00;5078342;28;20397;-77
2022/09/18 00:24:13;;;;;;;2.67;1.50;;;;;;;26.54;28.21;96976.00;5062956;28;20037;-78
2022/09/18 00:26:39;;;;;;;2.92;1.35;;;;;;;26.67;27.92;96979.38;5066543;28;20067;-78
2022/09/18 00:29:06;;;;;;;1.95;1.40;;;;;;;26.87;27.57;96987.25;5060854;28;20113;-78
2022/09/18 00:31:34;;;;;;;3.95;1.20;;;;;;;27.06;27.47;96983.06;5065006;28;20048;-78
2022/09/18 00:34:03;;;;;;;3.28;1.45;;;;;;;26.44;28.12;96982.91;5063933;28;20044;-78
2022/09/18 00:36:29;;;;;;;1.73;1.10;;;;;;;26.16;28.59;96984.31;5067688;28;20050;-78
2022/09/18 00:38:58;;;;;;;1.83;1.50;;;;;;;25.80;29.21;96979.53;5065722;28;20087;-78
2022/09/18 00:41:30;;;;;;;2.63;1.20;;;;;;;26.77;27.93;96979.34;5063661;28;20029;-78
2022/09/18 00:44:36;;;;;;;1.73;1.38;;;;;;;26.94;27.43;96978.44;5059211;28;20103;-78
2022/09/18 00:47:09;;;;;;;1.38;1.27;;;;;;;26.73;27.65;96980.28;5056426;28;21684;-79
2022/09/18 00:49:51;;;;;;;2.90;1.63;;;;;;;25.73;29.39;96988.31;5060988;28;20052;-80
2022/09/18 00:52:22;;;;;;;1.50;1.00;;;;;;;26.35;28.67;96974.53;5062065;28;20397;-80
2022/09/18 00:54:51;;;;;;;;;;;;;;;26.98;27.32;96981.09;5061661;28;20028;-80
2022/09/18 00:57:32;;;;;;;3.63;1.50;;;;;;;26.21;28.34;96974.44;5063395;28;19920;-81
2022/09/18 01:00:02;;;;;;;3.30;1.05;;;;;;;25.51;29.94;96984.88;5061414;28;20058;-81
2022/09/18 01:02:29;;;;;;;;;;;;;;;26.38;28.36;96975.59;5057384;28;20538;-81
2022/09/18 01:04:55;;;;;;;2.30;1.20;;;;;;;25.87;29.26;96973.59;5064696;28;19920;-81
2022/09/18 01:07:38;;;;;;;2.38;1.30;;;;;;;24.78;30.69;96970.03;5061976;28;20389;-81
2022/09/18 01:10:23;;;;;;;1.58;1.00;;;;;;;24.93;30.58;96976.59;5061097;28;20033;-81
2022/09/18 01:13:01;;;;;;;2.55;1.38;;;;;;;25.00;30.70;96970.66;5056631;28;20398;-80
2022/09/18 01:15:44;;;;;;;2.88;1.48;;;;;;;25.62;29.46;96979.59;5060573;28;20029;-81
2022/09/18 01:18:35;;;;;;;4.60;1.33;;;;;;;25.95;28.93;96965.59;5068492;28;20028;-81
2022/09/18 01:21:12;;;;;;;;;;;;;;;26.44;28.23;96976.53;5067067;28;20531;-79
2022/09/18 01:23:57;;;;;;;2.38;1.48;;;;;;;25.21;29.45;96966.94;5065477;28;20351;-79
2022/09/18 01:26:39;;;;;;;3.03;1.58;;;;;;;24.58;31.09;96964.00;5059666;28;20390;-79
2022/09/18 01:29:29;;;;;;;2.78;1.85;;;;;;;24.18;31.93;96972.47;5067161;28;20032;-79
2022/09/18 01:32:12;;;;;;;4.40;2.20;;;;;;;24.94;30.92;96972.53;5067770;28;20564;-79
2022/09/18 01:35:26;;;;;;;5.15;2.47;;;;;;;25.06;30.37;96973.63;5067454;28;20482;-79
2022/09/18 01:38:05;;;;;;;2.78;2.50;;;;;;;24.89;30.43;96969.56;5028795;28;20041;-79
2022/09/18 01:40:41;;;;;;;3.00;2.17;;;;;;;25.72;29.63;96958.63;5061863;28;20044;-78
2022/09/18 01:43:13;;;;;;;4.03;2.72;;;;;;;25.95;28.89;96971.97;5067906;28;20024;-79
2022/09/18 01:45:52;;;;;;;4.25;2.70;;;;;;;26.21;28.38;96971.63;5064534;28;20064;-79
2022/09/18 01:48:27;;;;;;;3.85;2.67;;;;;;;25.58;29.81;96978.19;5057511;28;20394;-79
2022/09/18 01:50:59;;;;;;;6.43;3.28;;;;;;;25.67;29.38;96983.78;5062910;28;20047;-79
2022/09/18 01:53:35;;;;;;;2.47;2.17;;;;;;;24.94;30.54;96983.78;5064818;28;20389;-79
2022/09/18 01:56:18;;;;;;;4.88;2.85;;;;;;;25.18;29.71;96990.31;5071116;28;20040;-79
2022/09/18 01:58:45;;;;;;;3.72;2.65;;;;;;;24.68;30.79;96990.88;5067642;28;20037;-79
2022/09/18 02:01:16;;;;;;;4.30;3.08;;;;;;;24.54;30.96;96988.66;5069677;28;20107;-79
2022/09/18 02:03:47;;;;;;;;;;;;;;;24.75;30.39;96979.34;5064824;28;20060;-78
2022/09/18 02:06:53;;;;;;;5.63;3.35;;;;;;;24.32;31.51;96985.16;5069324;28;19962;-78
2022/09/18 02:09:19;;;;;;;6.00;3.30;;;;;;;23.94;32.18;96986.19;5040031;28;20128;-79
2022/09/18 02:11:49;;;;;;;3.88;2.55;;;;;;;24.10;32.33;96993.63;5067655;28;20450;-79
2022/09/18 02:14:24;;;;;;;3.53;2.65;;;;;;;24.18;32.39;96989.28;5056934;28;20437;-79
2022/09/18 02:16:56;;;;;;;4.32;2.75;;;;;;;25.30;30.49;96992.22;5061624;28;21642;-78
2022/09/18 02:19:27;;;;;;;5.00;2.90;;;;;;;25.55;29.72;96990.34;5064056;28;20052;-78
2022/09/18 02:21:55;;;;;;;3.65;2.17;;;;;;;24.42;31.72;96992.34;5069978;28;20040;-78
2022/09/18 02:24:27;;;;;;;5.22;3.05;;;;;;;24.51;31.17;96992.38;5070034;28;20386;-79
2022/09/18 02:26:55;;;;;;;3.80;2.42;;;;;;;25.29;30.07;96987.84;5061802;28;20087;-78
2022/09/18 02:29:23;;;;;;;2.72;2.05;;;;;;;25.39;30.08;96994.25;5068243;28;20035;-78
2022/09/18 02:31:50;;;;;;;4.63;2.42;;;;;;;25.50;29.75;96983.34;5064469;28;20032;-78
2022/09/18 02:34:18;;;;;;;3.13;2.30;;;;;;;25.04;30.51;96988.13;5062185;28;20400;-78
2022/09/18 02:36:56;;;;;;;4.55;2.28;;;;;;;25.49;29.72;96995.03;5060131;28;20026;-78
2022/09/18 02:40:07;;;;;;;3.72;2.50;;;;;;;25.28;29.67;97003.13;5067210;28;20433;-78
2022/09/18 02:43:11;;;;;;;5.68;2.33;;;;;;;25.52;29.56;97006.13;5065229;28;20040;-78
2022/09/18 02:45:51;;;;;;;3.70;2.47;;;;;;;25.96;28.83;97006.53;5050508;28;20073;-77
2022/09/18 02:48:43;;;;;;;3.72;2.75;;;;;;;25.39;29.50;97006.25;5061768;28;20032;-78
2022/09/18 02:51:44;;;;;;;2.95;1.65;;;;;;;25.50;29.66;97005.03;5057891;28;20052;-78
2022/09/18 02:54:24;;;;;;;6.28;2.75;;;;;;;25.79;28.71;97005.34;5068093;28;20029;-78
2022/09/18 02:57:02;;;;;;;4.70;2.47;;;;;;;25.64;29.03;97012.84;5066524;28;20070;-78
2022/09/18 02:59:36;;;;;;;4.20;2.65;;;;;;;24.96;29.80;97009.34;5069235;28;20490;-78
2022/09/18 03:02:03;;;;;;;5.07;3.20;;;;;;;24.20;30.92;96988.84;5067319;28;20091;-78
2022/09/18 03:04:29;;;;;;;4.47;2.38;;;;;;;25.21;29.54;97008.28;5067805;28;20107;-78
2022/09/18 03:06:55;;;;;;;3.80;2.78;;;;;;;25.18;29.51;97006.44;5067340;28;20119;-78
2022/09/18 03:09:22;;;;;;;5.43;2.33;;;;;;;25.43;29.21;97003.31;5067769;28;20562;-78
2022/09/18 03:11:49;;;;;;;3.53;2.05;;;;;;;25.85;28.76;97011.88;5067156;28;20028;-77
2022/09/18 03:14:15;;;;;;;3.35;2.10;;;;;;;26.20;27.90;96993.38;5065027;28;20029;-77
2022/09/18 03:16:41;;;;;;;4.43;2.45;;;;;;;26.10;28.06;97000.25;5066901;28;20037;-77
2022/09/18 03:19:07;;;;;;;5.43;2.75;;;;;;;26.26;27.70;97004.72;5062453;28;20401;-77
2022/09/18 03:21:33;;;;;;;3.65;2.30;;;;;;;25.92;28.28;97006.72;5064126;28;20024;-77
2022/09/18 03:23:59;;;;;;;3.10;2.20;;;;;;;25.51;28.92;97012.22;5061411;28;20195;-77
2022/09/18 03:26:25;;;;;;;3.15;1.98;;;;;;;25.05;29.63;97017.78;5064569;28;20042;-77
2022/09/18 03:28:51;;;;;;;7.60;2.58;;;;;;;25.09;29.57;97015.59;5062083;28;20093;-77
2022/09/18 03:31:18;;;;;;;4.47;2.30;;;;;;;25.18;29.06;97012.81;5068139;28;20036;-78
2022/09/18 03:33:44;;;;;;;4.05;2.63;;;;;;;25.43;29.06;97020.16;5065627;28;20036;-77
2022/09/18 03:36:10;;;;;;;4.88;1.92;;;;;;;25.47;28.73;97018.00;5066950;28;20059;-77
2022/09/18 03:38:39;;;;;;;3.38;1.83;;;;;;;26.24;27.55;97021.31;5064878;28;20112;-77
2022/09/18 03:41:06;;;;;;;6.43;2.30;;;;;;;25.75;28.09;97021.56;5061909;28;20036;-77
2022/09/18 03:43:33;;;;;;;3.05;1.85;;;;;;;25.69;28.27;97027.06;5061680;28;20036;-78
2022/09/18 03:46:00;;;;;;;5.57;1.83;;;;;;;26.14;27.71;97020.56;5061784;28;20142;-77
2022/09/18 03:48:26;;;;;;;5.03;1.77;;;;;;;26.28;27.09;97031.16;5064582;28;20028;-77
2022/09/18 03:50:53;;;;;;;4.40;1.58;;;;;;;25.61;28.36;97030.63;5058049;28;20535;-77
2022/09/18 03:53:19;;;;;;;5.65;1.83;;;;;;;25.80;28.01;97030.16;5067312;28;20037;-77
2022/09/18 03:55:47;;;;;;;2.75;1.83;;;;;;;25.30;28.67;97023.13;5060815;28;20029;-77
2022/09/18 03:58:13;;;;;;;5.10;2.50;;;;;;;24.44;29.86;97029.13;5061343;28;20040;-77
2022/09/18 04:00:40;;;;;;;2.95;1.92;;;;;;;24.70;29.89;97036.09;5060389;28;20028;-76
2022/09/18 04:03:07;;;;;;;5.82;2.15;;;;;;;24.95;29.49;97026.69;5066647;28;20035;-77
2022/09/18 04:05:33;;;;;;;3.65;1.80;;;;;;;25.71;28.20;97035.00;5063456;28;20033;-77
2022/09/18 04:08:00;;;;;;;2.53;1.60;;;;;;;25.14;28.73;97033.88;5067263;28;20509;-77
2022/09/18 04:10:27;;;;;;;2.67;1.70;;;;;;;25.50;28.48;97033.16;5068084;28;20021;-77
2022/09/18 04:12:53;;;;;;;2.75;1.40;;;;;;;25.72;27.99;97039.41;5057597;28;20041;-77
2022/09/18 04:15:19;;;;;;;4.68;2.03;;;;;;;25.26;28.15;97033.75;5064793;28;20592;-77
2022/09/18 04:17:45;;;;;;;2.60;1.20;;;;;;;25.42;28.08;97036.25;5062400;28;20149;-77
2022/09/18 04:20:11;;;;;;;4.55;1.40;;;;;;;26.34;27.09;97039.75;5067869;28;20410;-77
2022/09/18 04:22:37;;;;;;;2.60;1.30;;;;;;;25.99;27.09;97037.31;5066935;28;20047;-77
2022/09/18 04:25:04;;;;;;;2.20;1.38;;;;;;;26.09;26.77;97038.84;5060224;28;20021;-77
2022/09/18 04:27:30;;;;;;;3.40;1.45;;;;;;;24.36;28.83;97050.31;5063577;28;20045;-77
2022/09/18 04:29:56;;;;;;;2.55;1.33;;;;;;;23.89;30.48;97053.28;5066222;28;20166;-77
2022/09/18 04:32:22;;;;;;;2.20;1.55;;;;;;;24.61;28.69;97050.09;5060124;28;20376;-77
2022/09/18 04:34:48;;;;;;;6.55;2.33;;;;;;;24.64;28.33;97037.94;5068175;28;20503;-77
2022/09/18 04:37:14;;;;;;;6.53;2.35;;;;;;;24.67;28.65;97051.84;5069793;28;20059;-77
2022/09/18 04:39:40;;;;;;;4.40;1.58;;;;;;;24.82;28.50;97049.25;5060437;28;20514;-77
2022/09/18 04:42:07;;;;;;;1.92;1.50;;;;;;;25.33;27.55;97047.47;5054199;28;20040;-77
2022/09/18 04:44:33;;;;;;;3.72;1.77;;;;;;;25.46;26.87;97055.00;5072321;28;20456;-76
2022/09/18 04:46:59;;;;;;;2.60;1.13;;;;;;;24.89;28.26;97054.59;5064125;28;20503;-77
2022/09/18 04:49:25;;;;;;;1.77;0.98;;;;;;;24.95;28.52;97051.97;5061865;28;20043;-77
2022/09/18 04:51:51;;;;;;;4.88;1.15;;;;;;;25.16;27.56;97053.84;5075918;28;20024;-77
2022/09/18 04:54:17;;;;;;;1.90;1.13;;;;;;;25.60;26.72;97057.97;5066516;28;20031;-78
2022/09/18 04:56:43;;;;;;;4.22;1.20;;;;;;;25.91;26.77;97058.56;5070172;28;20397;-76
2022/09/18 04:59:09;;;;;;;1.58;0.90;;;;;;;26.23;26.16;97057.13;5073532;28;20029;-76
2022/09/18 05:01:35;;;;;;;1.75;1.00;;;;;;;26.77;25.42;97063.84;5068436;28;20040;-76
2022/09/18 05:04:01;;;;;;;1.38;0.80;;;;;;;26.63;25.95;97060.41;5064105;28;20529;-78
2022/09/18 05:06:28;;;;;;;1.35;0.90;;;;;;;26.64;25.71;97059.19;5076250;28;20063;-79
2022/09/18 05:08:54;;;;;;;2.97;1.13;;;;;;;26.85;25.62;97050.97;5069555;28;20032;-77
2022/09/18 05:11:20;;;;;;;2.28;1.15;;;;;;;26.65;25.58;97055.09;5065620;28;20060;-77
2022/09/18 05:13:51;;;;;;;2.78;1.13;;;;;;;26.35;26.47;97056.16;5075111;28;20036;-78
2022/09/18 05:16:17;;;;;;;1.92;1.13;;;;;;;25.76;27.23;97054.84;5076196;28;20024;-77
2022/09/18 05:18:43;;;;;;;1.67;0.80;;;;;;;26.20;26.73;97069.34;5065507;28;20032;-77
2022/09/18 05:21:10;;;;;;;1.08;0.80;;;;;;;26.33;27.20;97069.13;5062673;28;20044;-77
2022/09/18 05:23:36;;;;;;;2.03;1.00;;;;;;;26.70;26.02;97062.09;5069949;28;20028;-77
2022/09/18 05:26:03;;;;;;;3.65;1.20;;;;;;;27.15;25.55;97067.53;5075528;28;20039;-77
2022/09/18 05:28:29;;;;;;;2.53;1.00;;;;;;;26.19;26.69;97073.38;5056994;28;20062;-77
2022/09/18 05:31:01;;;;;;;2.85;1.00;;;;;;;25.41;28.24;97067.63;5072535;28;20052;-77
2022/09/18 05:33:27;;;;;;;2.15;0.90;;;;;;;25.65;27.38;97077.00;5060245;28;20048;-77
2022/09/18 05:35:54;;;;;;;2.95;1.10;;;;;;;26.43;26.28;97068.63;5058275;28;20021;-77
2022/09/18 05:38:20;;;;;;;1.70;1.20;;;;;;;26.20;26.46;97068.53;5063439;28;20111;-78
2022/09/18 05:40:47;;;;;;;2.08;1.38;;;;;;;26.38;26.28;97068.50;5065277;28;20029;-79
2022/09/18 05:43:14;;;;;;;1.30;1.10;;;;;;;26.38;26.21;97069.28;5068914;28;20367;-79
2022/09/18 05:45:40;;;;;;;1.42;1.15;;;;;;;26.35;26.07;97058.19;5071644;28;20025;-79
2022/09/18 05:48:06;;;;;;;2.72;1.40;;;;;;;26.21;26.12;97070.88;5058654;28;20425;-79
2022/09/18 05:50:33;;;;;;;1.77;0.70;;;;;;;26.45;26.21;97062.53;5068844;28;20075;-79
2022/09/18 05:53:01;;;;;;;2.47;1.20;;;;;;;25.81;26.68;97064.69;5072587;28;20375;-78
2022/09/18 05:55:28;;;;;;;1.75;1.00;;;;;;;25.75;26.79;97067.34;5065678;28;20158;-78
2022/09/18 05:57:56;;;;;;;4.07;1.30;;;;;;;25.57;26.90;97069.38;5068267;28;20115;-77
2022/09/18 06:00:23;;;;;;;2.30;1.20;;;;;;;24.71;28.08;97072.09;5067072;28;20028;-77
2022/09/18 06:03:00;;;;;;;3.35;1.08;;;;;;;25.50;27.98;97075.31;5060140;28;20052;-77
2022/09/18 06:05:28;;;;;;;2.67;1.10;;;;;;;25.83;26.60;97073.44;5061817;28;20035;-77
2022/09/18 06:07:56;;;;;;;3.33;1.40;;;;;;;25.39;27.51;97067.31;5061659;28;20036;-77
2022/09/18 06:10:22;;;;;;;3.70;1.70;;;;;;;26.05;27.16;97071.97;5068168;28;20498;-77
2022/09/18 06:12:48;;;;;;;1.13;1.00;;;;;;;26.21;26.74;97065.25;5066415;28;20147;-77
2022/09/18 06:15:14;;;;;;;1.95;1.23;;;;;;;26.19;26.61;97075.41;5068482;28;20432;-77
2022/09/18 06:17:41;;;;;;;1.63;0.90;;;;;;;27.28;25.70;97072.94;5070366;28;20028;-77
2022/09/18 06:20:08;;;;;;;2.25;1.05;;;;;;;26.44;27.54;97073.00;5063554;28;20028;-77
2022/09/18 06:22:35;;;;;;;2.83;1.25;;;;;;;26.16;26.69;97073.56;5062782;28;20020;-77
2022/09/18 06:25:02;;;;;;;2.38;1.10;;;;;;;26.70;25.86;97079.00;5068878;28;20086;-77
2022/09/18 06:27:28;;;;;;;2.72;1.15;;;;;;;26.56;26.17;97083.28;5059329;28;20039;-78
2022/09/18 06:29:54;;;;;;;3.40;1.00;;;;;;;26.72;26.15;97082.16;5066689;28;20441;-78
2022/09/18 06:32:20;;;;;;;2.28;1.05;;;;;;;27.03;25.33;97082.63;5063850;28;20494;-78
2022/09/18 06:34:48;;;;;;;1.83;0.93;;;;;;;26.66;26.00;97084.81;5062515;28;20112;-77
2022/09/18 06:37:15;;;;;;;0.93;0.90;;;;;;;26.54;25.84;97093.47;5056803;28;20115;-77
2022/09/18 06:39:41;;;;;;;1.08;0.90;;;;;;;26.42;26.65;97098.03;5071726;28;20036;-77
2022/09/18 06:42:07;;;;;;;1.38;0.80;;;;;;;26.65;25.78;97099.38;5068271;28;20098;-77
2022/09/18 06:44:33;;;;;;;1.25;0.80;;;;;;;25.80;26.69;97092.03;5069375;28;20029;-77
2022/09/18 06:46:59;;;;;;;5.65;0.85;;;;;;;25.52;27.13;97098.88;5061062;28;20570;-77
2022/09/18 06:49:25;;;;;;;0.80;0.77;;;;;;;26.32;26.33;97095.72;5057340;28;20033;-77
2022/09/18 06:51:51;;;;;;;1.23;0.80;;;;;;;26.14;26.66;97084.53;5057724;28;20051;-77
2022/09/18 06:54:17;;;;;;;1.20;0.93;;;;;;;25.90;26.81;97090.00;5065797;28;20131;-77
2022/09/18 06:56:45;;;;;;;1.10;0.70;;;;;;;25.56;27.49;97096.69;5070669;28;20032;-77
2022/09/18 06:59:11;;;;;;;2.45;0.80;;;;;;;24.90;28.33;97097.50;5071184;28;20048;-77
2022/09/18 07:01:37;;;;;;;1.02;0.90;;;;;;;25.23;27.80;97082.41;5066861;28;20033;-77
2022/09/18 07:04:03;;;;;;;0.82;0.70;;;;;;;25.63;27.48;97090.75;5063858;28;20091;-77
2022/09/18 07:06:29;;;;;;;1.27;0.93;;;;;;;25.50;27.31;97092.16;5064234;28;20060;-77
2022/09/18 07:08:56;;;;;;;0.70;0.70;;;;;;;25.97;27.12;97089.66;5062163;28;20036;-77
2022/09/18 07:11:22;;;;;;;1.55;0.70;;;;;;;25.92;26.82;97087.47;5063148;28;20074;-78
2022/09/18 07:13:48;;;;;;;2.28;0.60;;;;;;;26.75;26.35;97098.09;5059804;28;20437;-77
2022/09/18 07:16:15;;;;;;;0.90;0.80;;;;;;;25.53;28.06;97092.03;5060415;28;20044;-78
2022/09/18 07:18:42;;;;;;;2.08;0.70;;;;;;;26.29;26.37;97099.47;5060690;28;20064;-77
2022/09/18 07:21:08;;;;;;;0.98;0.82;;;;;;;26.00;26.97;97100.75;5055401;28;20025;-77
2022/09/18 07:23:34;;;;;;;2.08;0.90;;;;;;;25.97;26.45;97098.91;5059498;28;20037;-77
2022/09/18 07:26:02;;;;;;;2.65;0.77;;;;;;;26.21;26.34;97096.19;5059725;28;20057;-77
2022/09/18 07:28:28;;;;;;;0.70;0.70;;;;;;;26.68;25.77;97098.41;5062280;28;20040;-77
2022/09/18 07:30:55;;;;;;;0.57;0.57;;;;;;;26.81;26.01;97092.63;5064579;28;20061;-79
2022/09/18 07:33:21;;;;;;;1.30;0.80;;;;;;;26.00;26.89;97095.13;5062435;28;20482;-79
2022/09/18 07:35:47;;;;;;;1.50;0.60;;;;;;;26.24;26.69;97098.09;5065427;28;20032;-79
2022/09/18 07:38:13;;;;;;;0.93;0.63;;;;;;;26.60;27.26;97091.56;5065829;28;20025;-77
2022/09/18 07:40:41;;;;;;;2.10;0.60;;;;;;;26.71;26.01;97095.44;5064775;28;20398;-79
2022/09/18 07:43:09;;;;;;;1.58;0.63;;;;;;;26.65;26.53;97097.31;5069403;28;20040;-77
2022/09/18 07:45:36;;;;;;;0.85;0.65;;;;;;;26.95;26.24;97091.91;5068664;28;20112;-78
2022/09/18 07:48:06;;;;;;;0.95;0.45;;;;;;;26.49;26.57;97097.69;5064598;28;20457;-78
2022/09/18 07:50:32;;;;;;;1.15;0.68;;;;;;;27.03;26.29;97098.75;5059666;28;20083;-78
2022/09/18 07:53:04;;;;;;;1.33;0.70;;;;;;;26.20;27.80;97102.31;5065582;28;20039;-79
2022/09/18 07:55:33;;;;;;;1.33;0.60;;;;;;;26.64;26.60;97095.78;5068414;28;20513;-78
2022/09/18 07:58:03;;;;;;;2.33;0.57;;;;;;;26.42;26.81;97120.53;5061242;28;20464;-78
2022/09/18 08:00:33;;;;;;;1.17;0.60;;;;;;;26.33;27.46;97112.13;5062719;28;20056;-78
2022/09/18 08:03:08;;;;;;;4.60;0.50;;;;;;;25.63;27.52;97109.66;5063865;28;20052;-77
2022/09/18 08:05:34;;;;;;;0.50;0.40;;;;;;;26.42;26.68;97108.53;5063378;28;20482;-78
2022/09/18 08:08:11;;;;;;;0.60;0.60;;;;;;;27.24;25.74;97112.56;5060219;28;20041;-78
2022/09/18 08:10:39;;;;;;;0.82;0.50;;;;;;;26.70;25.19;97102.31;5056427;28;20040;-77
2022/09/18 08:13:05;;;;;;;0.40;0.40;;;;;;;26.24;26.32;97106.53;5062741;28;20024;-77
2022/09/18 08:15:33;;;;;;;0.80;0.70;;;;;;;26.33;26.22;97100.88;5062720;28;20062;-77
2022/09/18 08:17:59;;;;;;;0.60;0.40;;;;;;;25.82;27.36;97100.75;5068022;28;20053;-77
2022/09/18 08:20:26;;;;;;;0.82;0.55;;;;;;;25.34;30.03;97090.41;5069983;28;22497;-77
2022/09/18 08:22:52;;;;;;;1.10;0.50;;;;;;;25.76;26.57;97099.84;5070441;28;20028;-78
2022/09/18 08:25:19;;;;;;;0.40;0.40;;;;;;;27.29;26.07;97102.69;5080547;28;20043;-77
2022/09/18 08:27:46;;;;;;;1.23;0.60;;;;;;;27.01;26.03;97092.81;5075674;28;20055;-77
2022/09/18 08:30:14;;;;;;;2.25;0.50;;;;;;;26.66;27.18;97096.09;5067022;28;20090;-77
2022/09/18 08:32:40;;;;;;;1.35;0.50;;;;;;;26.75;26.10;97109.38;5066156;28;20025;-77
2022/09/18 08:35:07;;;;;;;0.32;0.30;;;;;;;26.31;25.91;97096.97;5071560;28;20397;-77
2022/09/18 08:37:33;;;;;;;1.02;0.50;;;;;;;26.49;26.59;97108.97;5069501;28;20539;-77
2022/09/18 08:39:59;;;;;;;0.57;0.40;;;;;;;27.34;25.72;97111.25;5070273;28;20391;-77
2022/09/18 08:43:05;;;;;;;1.15;0.40;;;;;;;26.92;24.39;97102.09;5076798;28;20086;-77
2022/09/18 08:45:45;;;;;;;0.73;0.50;;;;;;;25.68;29.99;97112.63;5076028;28;20032;-77
2022/09/18 08:48:15;;;;;;;1.83;0.57;;;;;;;24.91;27.62;97111.06;5072945;28;20116;-77
2022/09/18 08:50:45;;;;;;;;;;;;;;;25.24;26.70;97109.28;5066433;28;20037;-77
2022/09/18 08:53:22;;;;;;;1.60;0.70;;;;;;;25.52;28.63;97100.91;5067043;28;19947;-76
2022/09/18 08:55:50;;;;;;;1.17;0.50;;;;;;;26.29;26.15;97107.91;5066303;28;20029;-78
2022/09/18 08:58:21;;;;;;;0.60;0.40;;;;;;;25.67;25.90;97110.31;5072019;28;20036;-78
2022/09/18 09:00:53;;;;;;;0.50;0.50;;;;;;;25.77;27.35;97101.38;5064160;28;20033;-78
2022/09/18 09:03:49;;;;;;;1.25;0.50;;;;;;;25.87;27.41;97108.59;5064335;28;20552;-77
2022/09/18 09:06:37;;;;;;;2.67;0.50;;;;;;;26.80;26.67;97105.13;5067086;28;20033;-78
2022/09/18 09:09:32;;;;;;;0.50;0.50;;;;;;;27.25;26.93;97094.41;5065963;28;20044;-77
2022/09/18 09:12:22;;;;;;;0.93;0.50;;;;;;;28.50;25.24;97097.91;5072256;28;20044;-77
2022/09/18 09:15:12;;;;;;;0.60;0.47;;;;;;;27.22;26.05;97097.41;5066516;28;20128;-79
2022/09/18 09:17:53;;;;;;;0.65;0.40;;;;;;;27.80;25.90;97097.63;5064930;28;20501;-78
2022/09/18 09:20:36;;;;;;;0.50;0.43;;;;;;;28.86;24.35;97091.88;5064588;28;20040;-79
2022/09/18 09:23:06;;;;;;;0.40;0.40;;;;;;;28.74;23.32;97085.25;5069073;28;20060;-78
2022/09/18 09:25:46;;;;;;;0.38;0.35;;;;;;;28.55;23.65;97083.88;5067930;28;20028;-78
2022/09/18 09:28:27;;;;;;;1.20;0.30;;;;;;;27.61;23.81;97087.75;5068750;28;20482;-79
2022/09/18 09:30:59;;;;;;;;;;;;;;;26.00;29.72;97097.16;5064309;28;20094;-78
2022/09/18 09:33:37;;;;;;;1.17;0.38;;;;;;;26.11;27.51;97091.06;5065373;28;19912;-78
2022/09/18 09:36:13;;;;;;;0.52;0.30;;;;;;;24.84;31.26;97091.69;5066951;28;20080;-78
2022/09/18 09:38:55;;;;;;;0.80;0.50;;;;;;;26.00;27.21;97086.69;5067307;28;20481;-78
2022/09/18 09:41:33;;;;;;;0.45;0.45;;;;;;;25.23;28.33;97074.00;5066685;28;20079;-78
2022/09/18 09:44:26;;;;;;;0.45;0.40;;;;;;;25.63;27.59;97089.97;5067522;28;20032;-79
2022/09/18 09:47:01;;;;;;;0.30;0.30;;;;;;;26.95;26.27;97080.66;5071449;28;20032;-78
2022/09/18 09:49:30;;;;;;;0.50;0.50;;;;;;;27.13;26.98;97089.78;5067407;28;20082;-78
2022/09/18 09:52:09;;;;;;;2.25;0.43;;;;;;;26.76;25.17;97087.63;5065651;28;20486;-78
2022/09/18 09:54:36;;;;;;;0.38;0.38;;;;;;;26.39;26.57;97093.38;5068327;28;20512;-79
2022/09/18 09:57:25;;;;;;;1.13;0.30;;;;;;;25.43;25.70;97093.22;5062651;28;20478;-79
2022/09/18 10:00:09;;;;;;;1.20;0.43;;;;;;;24.88;26.91;97102.78;5060213;28;20036;-78
2022/09/18 10:02:59;;;;;;;0.45;0.45;;;;;;;26.73;25.79;97098.56;5071026;28;20035;-78
2022/09/18 10:05:41;;;;;;;0.30;0.30;;;;;;;26.88;24.85;97104.31;5066174;28;20040;-78
2022/09/18 10:08:38;;;;;;;0.40;0.40;;;;;;;27.09;24.29;97108.91;5064058;28;20037;-79
2022/09/18 10:11:10;;;;;;;0.30;0.30;;;;;;;27.40;25.47;97102.94;5064909;28;20041;-78
2022/09/18 10:14:04;;;;;;;0.30;0.30;;;;;;;27.60;24.22;97099.53;5062863;28;20037;-80
2022/09/18 10:16:47;;;;;;;0.63;0.25;;;;;;;27.54;24.50;97099.41;5058787;28;20052;-79
2022/09/18 10:19:18;;;;;;;0.73;0.30;;;;;;;27.12;26.23;97104.34;5067326;28;20048;-79
2022/09/18 10:21:48;;;;;;;1.02;0.60;;;;;;;27.22;25.08;97089.72;5059345;28;20032;-79
2022/09/18 10:24:47;;;;;;;2.80;0.30;;;;;;;26.93;24.45;97089.59;5060912;28;20037;-79
2022/09/18 10:27:14;;;;;;;1.40;0.45;;;;;;;27.63;24.03;97096.53;5063868;28;20048;-79
2022/09/18 10:29:41;;;;;;;1.00;0.50;;;;;;;27.69;24.48;97093.81;5065904;28;20024;-79
2022/09/18 10:32:11;;;;;;;1.35;0.52;;;;;;;26.80;25.55;97082.59;5067124;28;20040;-79
2022/09/18 10:34:48;;;;;;;0.43;0.40;;;;;;;28.16;24.70;97095.78;5060275;28;20033;-79
2022/09/18 10:37:29;;;;;;;0.98;0.40;;;;;;;27.44;25.67;97097.91;5067460;28;20482;-79
2022/09/18 10:40:00;;;;;;;0.40;0.40;;;;;;;27.38;28.39;97094.97;5054447;28;20032;-79
2022/09/18 10:42:28;;;;;;;0.68;0.50;;;;;;;25.67;29.54;97115.94;5060717;28;20120;-79
2022/09/18 10:44:57;;;;;;;0.60;0.50;;;;;;;24.97;30.10;97128.84;5055124;28;20122;-79
2022/09/18 10:47:26;;;;;;;0.50;0.50;;;;;;;25.10;30.31;97132.34;5057930;28;20033;-79
2022/09/18 10:50:05;;;;;;;2.70;0.70;;;;;;;25.14;30.59;97135.78;5064158;28;20043;-79
2022/09/18 10:52:47;;;;;;;0.55;0.50;;;;;;;25.80;28.44;97128.56;5059119;28;20041;-79
2022/09/18 10:55:26;;;;;;;0.60;0.40;;;;;;;25.52;29.99;97120.59;5060884;28;20029;-79
2022/09/18 10:58:29;;;;;;;0.70;0.40;;;;;;;26.25;28.97;97115.75;5064977;28;20493;-79
2022/09/18 11:01:04;;;;;;;0.73;0.60;;;;;;;27.00;28.84;97120.19;5056181;28;20051;-79
2022/09/18 11:03:42;;;;;;;0.45;0.45;;;;;;;27.67;28.13;97116.06;5051864;28;20052;-79
2022/09/18 11:06:17;;;;;;;0.82;0.50;;;;;;;27.61;27.59;97115.94;5057291;28;20484;-79
2022/09/18 11:08:47;;;;;;;1.75;0.60;;;;;;;27.17;26.99;97107.28;5055021;28;20121;-79
2022/09/18 11:11:29;;;;;;;0.60;0.60;;;;;;;27.56;28.48;97115.84;5063433;28;20047;-79
2022/09/18 11:14:04;;;;;;;0.50;0.50;;;;;;;26.20;27.80;97131.25;5059100;28;20039;-79
2022/09/18 11:16:36;;;;;;;1.85;0.50;;;;;;;24.59;29.64;97148.81;5060423;28;20025;-79
2022/09/18 11:19:22;;;;;;;1.02;0.40;;;;;;;23.39;32.25;97149.56;5052635;28;21721;-79
2022/09/18 11:21:53;;;;;;;0.38;0.30;;;;;;;23.71;29.78;97149.22;5054799;28;20524;-78
2022/09/18 11:24:32;;;;;;;0.45;0.40;;;;;;;24.11;29.93;97154.25;5054198;28;20162;-79
2022/09/18 11:27:15;;;;;;;0.68;0.40;;;;;;;24.80;28.91;97150.03;5052806;28;20035;-78
2022/09/18 11:29:42;;;;;;;0.95;0.40;;;;;;;25.64;29.68;97147.78;5059853;28;20028;-79
2022/09/18 11:32:18;;;;;;;1.75;0.70;;;;;;;26.53;28.11;97156.66;5062898;28;20081;-79
2022/09/18 11:35:03;;;;;;;0.30;0.30;;;;;;;26.92;27.79;97147.19;5057634;28;20040;-78
2022/09/18 11:37:36;;;;;;;0.30;0.30;;;;;;;25.94;27.23;97150.44;5057149;28;20132;-78
2022/09/18 11:40:17;;;;;;;0.73;0.30;;;;;;;25.14;29.47;97144.22;5054912;28;20021;-78
2022/09/18 11:42:45;;;;;;;;;;;;;;;25.41;27.65;97155.50;5060040;28;20452;-78
2022/09/18 11:45:50;;;;;;;0.25;0.25;;;;;;;25.46;27.33;97156.97;5066962;28;19915;-78
2022/09/18 11:48:26;;;;;;;1.00;0.30;;;;;;;25.46;29.54;97151.34;5062723;28;20044;-78
2022/09/18 11:50:56;;;;;;;0.10;0.10;;;;;;;25.06;28.24;97165.41;5067771;28;20394;-79
2022/09/18 11:53:30;;;;;;;0.20;0.20;;;;;;;25.87;27.11;97162.00;5059619;28;20035;-78
2022/09/18 11:56:03;;;;;;;0.55;0.20;;;;;;;25.53;26.92;97162.31;5061505;28;20039;-78
2022/09/18 11:58:32;;;;;;;1.48;0.15;;;;;;;24.60;27.65;97172.81;5064254;28;20104;-78